Time;durP1;ratioP1;P1;durP2;ratioP2;P2;SDS_P1;SDS_P2;PMS_P1;PMS_P2;Temp;Humidity;BMP_temperature;BMP_pressure;BME280_temperature;BME280_humidity;BME280_pressure;Samples;Min_cycle;Max_cycle;Signal;HPM_P1;HPM_P2
2023/09/03 00:00:28;;;;;;;25.65;18.42;;;;;;;14.93;100.00;102372.59;5073417;28;20028;-68
2023/09/03 00:02:54;;;;;;;27.42;18.90;;;;;;;14.89;100.00;102375.22;5072742;28;20497;-70
2023/09/03 00:05:19;;;;;;;26.38;18.67;;;;;;;14.94;100.00;102377.06;5073038;28;20103;-69
2023/09/03 00:07:45;;;;;;;28.40;19.35;;;;;;;14.93;100.00;102382.38;5072689;28;20071;-71
2023/09/03 00:10:10;;;;;;;27.00;18.50;;;;;;;14.87;100.00;102375.19;5072896;28;20036;-68
2023/09/03 00:12:35;;;;;;;26.45;18.73;;;;;;;14.84;100.00;102372.50;5073231;28;20052;-70
2023/09/03 00:15:01;;;;;;;25.70;18.33;;;;;;;14.88;100.00;102382.31;5071346;28;20452;-70
2023/09/03 00:17:26;;;;;;;26.42;18.38;;;;;;;14.85;100.00;102371.59;5072787;28;20428;-69
2023/09/03 00:19:51;;;;;;;27.10;18.13;;;;;;;14.83;100.00;102384.03;5072371;28;20051;-71
2023/09/03 00:22:17;;;;;;;26.10;18.52;;;;;;;14.74;100.00;102371.50;5072368;28;20031;-70
2023/09/03 00:24:42;;;;;;;26.33;17.95;;;;;;;14.70;100.00;102375.00;5072511;28;20032;-66
2023/09/03 00:27:07;;;;;;;25.77;17.55;;;;;;;14.74;100.00;102381.28;5072891;28;20016;-69
2023/09/03 00:29:35;;;;;;;26.35;18.75;;;;;;;14.71;100.00;102387.44;5072525;28;20170;-69
2023/09/03 00:32:01;;;;;;;26.55;18.15;;;;;;;14.63;100.00;102382.03;5088181;28;20032;-68
2023/09/03 00:34:26;;;;;;;25.77;17.77;;;;;;;14.60;100.00;102392.59;5068213;28;20048;-68
2023/09/03 00:36:51;;;;;;;26.48;18.48;;;;;;;14.61;100.00;102390.84;5072411;28;20040;-70
2023/09/03 00:39:18;;;;;;;25.42;18.10;;;;;;;14.56;100.00;102392.53;5072638;28;20117;-62
2023/09/03 00:41:44;;;;;;;25.52;18.27;;;;;;;14.62;100.00;102395.28;5072649;28;20028;-67
2023/09/03 00:44:10;;;;;;;27.02;18.42;;;;;;;14.59;100.00;102405.88;5072467;28;20033;-62
2023/09/03 00:46:35;;;;;;;27.13;18.92;;;;;;;14.63;100.00;102400.66;5072518;28;20039;-62
2023/09/03 00:49:01;;;;;;;25.80;17.42;;;;;;;14.62;100.00;102398.88;5072206;28;20032;-62
2023/09/03 00:51:27;;;;;;;27.65;18.95;;;;;;;14.60;100.00;102397.91;5068509;28;20099;-62
2023/09/03 00:53:55;;;;;;;27.05;19.33;;;;;;;14.57;100.00;102405.84;5072468;28;20031;-62
2023/09/03 00:56:21;;;;;;;25.80;18.08;;;;;;;14.52;100.00;102407.59;5072332;28;20067;-63
2023/09/03 00:58:47;;;;;;;25.92;17.83;;;;;;;14.50;100.00;102416.41;5072311;28;20477;-63
2023/09/03 01:01:14;;;;;;;26.20;17.23;;;;;;;14.36;100.00;102406.50;5072466;28;20052;-64
2023/09/03 01:03:42;;;;;;;25.52;17.33;;;;;;;14.34;100.00;102407.34;5072483;28;20056;-61
2023/09/03 01:06:08;;;;;;;25.00;17.10;;;;;;;14.26;100.00;102413.44;5072204;28;20487;-62
2023/09/03 01:08:35;;;;;;;25.50;16.98;;;;;;;14.23;100.00;102426.69;5072285;28;20037;-63
2023/09/03 01:11:15;;;;;;;26.23;18.58;;;;;;;14.23;100.00;102434.69;5071869;28;20530;-62
2023/09/03 01:13:58;;;;;;;27.25;18.02;;;;;;;14.17;100.00;102431.03;5070100;28;20154;-63
2023/09/03 01:16:34;;;;;;;;;;;;;;;14.21;100.00;102428.44;5072887;28;20103;-62
2023/09/03 01:19:12;;;;;;;25.83;18.35;;;;;;;14.02;100.00;102413.97;5068324;28;20398;-67
2023/09/03 01:21:57;;;;;;;26.40;18.63;;;;;;;13.98;100.00;102421.88;5069446;28;20064;-63
2023/09/03 01:24:42;;;;;;;26.95;19.25;;;;;;;13.92;100.00;102415.63;5072065;28;20020;-62
2023/09/03 01:27:41;;;;;;;25.98;18.63;;;;;;;13.90;100.00;102417.34;5069242;28;20040;-63
2023/09/03 01:30:07;;;;;;;26.38;17.98;;;;;;;13.88;100.00;102411.13;5069167;28;20464;-63
2023/09/03 01:32:34;;;;;;;25.95;17.42;;;;;;;13.86;100.00;102415.53;5074351;28;20036;-63
2023/09/03 01:35:00;;;;;;;24.77;16.67;;;;;;;13.79;100.00;102408.31;5075610;28;20070;-64
2023/09/03 01:37:26;;;;;;;26.52;17.52;;;;;;;13.75;100.00;102419.78;5075411;28;20032;-69
2023/09/03 01:39:52;;;;;;;25.30;17.58;;;;;;;13.73;100.00;102413.53;5075415;28;20033;-70
2023/09/03 01:42:17;;;;;;;26.88;18.42;;;;;;;13.73;100.00;102414.44;5075633;28;20020;-71
2023/09/03 01:44:42;;;;;;;26.80;19.77;;;;;;;13.75;100.00;102417.13;5075334;28;20502;-67
2023/09/03 01:47:14;;;;;;;26.73;17.35;;;;;;;13.69;100.00;102415.25;5073999;28;20029;-65
2023/09/03 01:50:03;;;;;;;25.40;17.10;;;;;;;13.65;100.00;102416.06;5075438;28;20164;-70
2023/09/03 01:52:49;;;;;;;24.83;17.08;;;;;;;13.64;100.00;102413.38;5071430;28;20032;-66
2023/09/03 01:55:18;;;;;;;26.20;17.27;;;;;;;13.58;100.00;102415.06;5072483;28;20021;-71
2023/09/03 01:57:47;;;;;;;24.95;16.65;;;;;;;13.57;100.00;102407.06;5075007;28;20032;-64
2023/09/03 02:00:16;;;;;;;24.27;16.30;;;;;;;13.59;100.00;102414.19;5075469;28;20440;-65
2023/09/03 02:02:44;;;;;;;25.65;17.17;;;;;;;13.52;100.00;102414.94;5075486;28;20128;-65
2023/09/03 02:05:11;;;;;;;27.38;16.80;;;;;;;13.44;100.00;102416.59;5075206;28;20032;-64
2023/09/03 02:07:36;;;;;;;27.00;17.67;;;;;;;13.32;100.00;102416.34;5074923;28;20029;-65
2023/09/03 02:10:02;;;;;;;25.13;17.38;;;;;;;13.25;100.00;102418.88;5090900;28;20089;-68
2023/09/03 02:12:28;;;;;;;26.65;18.85;;;;;;;13.18;100.00;102424.94;5073812;28;20097;-65
2023/09/03 02:14:53;;;;;;;25.92;17.98;;;;;;;13.21;100.00;102430.31;5075016;28;20028;-62
2023/09/03 02:17:19;;;;;;;24.98;16.52;;;;;;;13.23;100.00;102449.81;5075022;28;20422;-64
2023/09/03 02:19:49;;;;;;;25.60;17.05;;;;;;;13.28;100.00;102447.28;5074800;28;20025;-63
2023/09/03 02:22:14;;;;;;;26.15;15.63;;;;;;;13.22;100.00;102444.47;5074807;28;20090;-63
2023/09/03 02:24:40;;;;;;;24.95;15.60;;;;;;;13.14;100.00;102454.97;5074836;28;20063;-62
2023/09/03 02:27:05;;;;;;;24.90;15.52;;;;;;;13.18;100.00;102455.94;5074467;28;20036;-64
2023/09/03 02:29:30;;;;;;;23.80;15.23;;;;;;;13.15;100.00;102451.44;5074653;28;20020;-66
2023/09/03 02:31:56;;;;;;;24.80;16.02;;;;;;;13.13;100.00;102450.50;5074734;28;20083;-62
2023/09/03 02:34:21;;;;;;;24.58;15.80;;;;;;;13.05;100.00;102450.38;5074181;28;20056;-64
2023/09/03 02:36:47;;;;;;;25.38;16.05;;;;;;;12.99;100.00;102459.97;5074719;28;20040;-63
2023/09/03 02:39:13;;;;;;;24.65;16.35;;;;;;;12.97;100.00;102454.63;5074497;28;20028;-62
2023/09/03 02:41:38;;;;;;;24.75;16.17;;;;;;;13.00;100.00;102457.34;5074326;28;20506;-67
2023/09/03 02:44:06;;;;;;;25.27;16.20;;;;;;;12.86;100.00;102451.75;5073461;28;20029;-63
2023/09/03 02:46:32;;;;;;;26.08;17.95;;;;;;;12.91;100.00;102444.78;5074488;28;20024;-65
2023/09/03 02:48:57;;;;;;;24.17;16.98;;;;;;;12.92;100.00;102440.38;5070136;28;20464;-62
2023/09/03 02:51:23;;;;;;;24.08;15.95;;;;;;;12.90;100.00;102434.13;5074137;28;20036;-64
2023/09/03 02:53:51;;;;;;;24.50;14.75;;;;;;;12.91;100.00;102433.28;5074265;28;20027;-64
2023/09/03 02:56:16;;;;;;;24.83;16.63;;;;;;;12.90;100.00;102440.34;5089601;28;20460;-65
2023/09/03 02:58:42;;;;;;;25.77;17.85;;;;;;;12.95;100.00;102442.22;5073907;28;20025;-63
2023/09/03 03:01:09;;;;;;;24.67;16.67;;;;;;;12.91;100.00;102435.94;5074185;28;20111;-62
2023/09/03 03:03:35;;;;;;;24.10;16.38;;;;;;;12.96;100.00;102438.66;5073878;28;20020;-64
2023/09/03 03:06:00;;;;;;;24.92;16.40;;;;;;;12.99;100.00;102438.72;5072560;28;20379;-64
2023/09/03 03:08:26;;;;;;;24.70;15.32;;;;;;;12.94;100.00;102446.59;5073978;28;20028;-65
2023/09/03 03:10:51;;;;;;;24.17;15.20;;;;;;;12.88;100.00;102451.78;5073610;28;20024;-62
2023/09/03 03:13:17;;;;;;;24.63;15.00;;;;;;;12.82;100.00;102457.88;5073857;28;20112;-62
2023/09/03 03:15:43;;;;;;;23.08;14.73;;;;;;;12.78;100.00;102461.31;5073632;28;20035;-64
2023/09/03 03:18:08;;;;;;;25.15;15.30;;;;;;;12.72;100.00;102456.78;5073822;28;20037;-66
2023/09/03 03:20:34;;;;;;;24.10;15.07;;;;;;;12.72;100.00;102447.94;5072495;28;20062;-62
2023/09/03 03:22:59;;;;;;;23.70;14.60;;;;;;;12.56;100.00;102441.41;5073506;28;20033;-62
2023/09/03 03:25:25;;;;;;;23.05;15.48;;;;;;;12.56;100.00;102429.03;5072176;28;20032;-64
2023/09/03 03:27:50;;;;;;;24.08;16.15;;;;;;;12.53;100.00;102414.81;5073532;28;20040;-64
2023/09/03 03:30:15;;;;;;;25.17;17.63;;;;;;;12.51;100.00;102409.47;5073269;28;20060;-62
2023/09/03 03:32:41;;;;;;;27.73;19.48;;;;;;;12.48;100.00;102411.16;5073330;28;20113;-71
2023/09/03 03:35:06;;;;;;;25.83;18.75;;;;;;;12.51;100.00;102416.56;5073243;28;20411;-66
2023/09/03 03:37:32;;;;;;;26.85;19.55;;;;;;;12.58;100.00;102404.28;5073262;28;20115;-62
2023/09/03 03:39:57;;;;;;;25.38;17.70;;;;;;;12.52;100.00;102421.88;5073514;28;20029;-70
2023/09/03 03:42:22;;;;;;;26.17;18.60;;;;;;;12.55;100.00;102435.22;5073313;28;20032;-64
2023/09/03 03:44:48;;;;;;;26.23;18.20;;;;;;;12.58;100.00;102444.09;5073167;28;20032;-65
2023/09/03 03:47:13;;;;;;;24.88;16.75;;;;;;;12.56;100.00;102454.66;5072995;28;20031;-63
2023/09/03 03:49:38;;;;;;;25.42;16.60;;;;;;;12.49;100.00;102458.94;5073227;28;20478;-70
2023/09/03 03:52:04;;;;;;;25.75;16.70;;;;;;;12.47;100.00;102459.78;5072958;28;20033;-72
2023/09/03 03:54:30;;;;;;;25.05;16.58;;;;;;;12.48;100.00;102466.84;5088627;28;20033;-68
2023/09/03 03:56:56;;;;;;;25.65;16.65;;;;;;;12.48;100.00;102456.25;5072998;28;20133;-65
2023/09/03 03:59:21;;;;;;;24.38;16.88;;;;;;;12.37;100.00;102451.59;5072869;28;20495;-65
2023/09/03 04:01:47;;;;;;;26.83;17.80;;;;;;;12.35;100.00;102450.69;5088646;28;20070;-68
2023/09/03 04:04:12;;;;;;;27.48;18.40;;;;;;;12.36;100.00;102454.22;5071599;28;20036;-64
2023/09/03 04:06:38;;;;;;;26.67;17.63;;;;;;;12.37;100.00;102466.63;5072770;28;20052;-65
2023/09/03 04:09:03;;;;;;;26.73;18.10;;;;;;;12.40;100.00;102472.00;5072795;28;20067;-71
2023/09/03 04:11:28;;;;;;;26.92;18.08;;;;;;;12.41;100.00;102471.13;5068684;28;20039;-71
2023/09/03 04:13:54;;;;;;;26.63;18.00;;;;;;;12.44;100.00;102472.97;5072859;28;20399;-65
2023/09/03 04:16:22;;;;;;;25.33;17.63;;;;;;;12.46;100.00;102479.19;5072926;28;20028;-67
2023/09/03 04:18:49;;;;;;;25.08;16.63;;;;;;;12.42;100.00;102477.31;5072924;28;20550;-68
2023/09/03 04:21:15;;;;;;;24.00;16.20;;;;;;;12.41;100.00;102478.19;5072564;28;20107;-67
2023/09/03 04:23:40;;;;;;;24.80;15.80;;;;;;;12.39;100.00;102483.44;5072846;28;20032;-65
2023/09/03 04:26:08;;;;;;;24.77;15.73;;;;;;;12.37;100.00;102480.75;5072532;28;20021;-68
2023/09/03 04:28:34;;;;;;;24.23;15.65;;;;;;;12.36;100.00;102484.31;5072539;28;20028;-68
2023/09/03 04:31:01;;;;;;;24.73;16.02;;;;;;;12.32;100.00;102478.88;5072887;28;20036;-71
2023/09/03 04:33:27;;;;;;;23.17;15.32;;;;;;;12.36;100.00;102480.72;5072284;28;20032;-73
2023/09/03 04:35:57;;;;;;;24.33;15.80;;;;;;;12.31;100.00;102479.75;5072518;28;20111;-64
2023/09/03 04:38:23;;;;;;;24.23;15.23;;;;;;;12.31;100.00;102477.09;5072662;28;20067;-67
2023/09/03 04:40:48;;;;;;;25.33;16.70;;;;;;;12.32;100.00;102485.09;5072512;28;20479;-72
2023/09/03 04:43:14;;;;;;;23.33;15.63;;;;;;;12.29;100.00;102492.06;5071171;28;20025;-66
2023/09/03 04:45:53;;;;;;;24.40;15.77;;;;;;;12.30;100.00;102496.50;5072677;28;20493;-68
2023/09/03 04:48:20;;;;;;;23.70;15.40;;;;;;;12.27;100.00;102491.13;5072518;28;20024;-67
2023/09/03 04:50:46;;;;;;;23.73;15.25;;;;;;;12.25;100.00;102488.44;5072359;28;20028;-73
2023/09/03 04:53:12;;;;;;;22.60;14.25;;;;;;;12.25;100.00;102504.38;5071398;28;20147;-73
2023/09/03 04:55:38;;;;;;;23.83;15.15;;;;;;;12.30;100.00;102499.16;5072841;28;20356;-73
2023/09/03 04:58:03;;;;;;;24.92;15.48;;;;;;;12.31;100.00;102504.50;5087967;28;20112;-73
2023/09/03 05:00:30;;;;;;;24.65;14.98;;;;;;;12.27;100.00;102504.41;5071596;28;20031;-73
2023/09/03 05:02:56;;;;;;;23.33;15.15;;;;;;;12.34;100.00;102516.94;5072412;28;20167;-73
2023/09/03 05:05:22;;;;;;;23.20;14.70;;;;;;;12.36;100.00;102520.50;5072268;28;20447;-73
2023/09/03 05:07:48;;;;;;;24.33;14.65;;;;;;;12.36;100.00;102518.78;5074973;28;20118;-73
2023/09/03 05:10:14;;;;;;;23.25;14.07;;;;;;;12.34;100.00;102522.25;5076229;28;20380;-73
2023/09/03 05:12:43;;;;;;;23.33;14.73;;;;;;;12.34;100.00;102523.13;5075965;28;20056;-73
2023/09/03 05:15:12;;;;;;;24.05;14.48;;;;;;;12.32;100.00;102521.28;5074969;28;20025;-73
2023/09/03 05:17:38;;;;;;;24.30;14.90;;;;;;;12.35;100.00;102519.63;5074702;28;20029;-73
2023/09/03 05:20:05;;;;;;;23.92;14.80;;;;;;;12.43;100.00;102525.09;5076087;28;20137;-73
2023/09/03 05:22:30;;;;;;;23.95;14.05;;;;;;;12.37;100.00;102517.00;5076052;28;20044;-73
2023/09/03 05:24:56;;;;;;;24.05;14.15;;;;;;;12.46;100.00;102532.25;5075784;28;20107;-73
2023/09/03 05:27:21;;;;;;;22.70;13.85;;;;;;;12.46;100.00;102541.09;5075671;28;20032;-65
2023/09/03 05:29:47;;;;;;;23.48;14.25;;;;;;;12.47;100.00;102547.31;5075945;28;20117;-63
2023/09/03 05:32:13;;;;;;;23.42;14.50;;;;;;;12.46;100.00;102543.72;5075572;28;20029;-68
2023/09/03 05:34:38;;;;;;;23.73;14.35;;;;;;;12.52;100.00;102549.22;5075459;28;20045;-68
2023/09/03 05:37:03;;;;;;;23.23;13.90;;;;;;;12.59;100.00;102538.72;5075768;28;20040;-66
2023/09/03 05:39:29;;;;;;;24.70;14.43;;;;;;;12.61;100.00;102537.00;5075806;28;20033;-67
2023/09/03 05:41:55;;;;;;;23.83;14.70;;;;;;;12.61;100.00;102537.91;5075472;28;20487;-68
2023/09/03 05:44:20;;;;;;;24.63;14.25;;;;;;;12.68;100.00;102542.50;5075866;28;20078;-67
2023/09/03 05:46:46;;;;;;;24.40;15.23;;;;;;;12.75;100.00;102532.91;5075470;28;20029;-71
2023/09/03 05:49:11;;;;;;;24.58;15.27;;;;;;;12.77;100.00;102539.16;5075585;28;20072;-73
2023/09/03 05:51:36;;;;;;;23.98;15.55;;;;;;;12.80;100.00;102540.94;5075453;28;20082;-69
2023/09/03 05:54:02;;;;;;;25.50;16.35;;;;;;;12.87;100.00;102541.16;5074121;28;20047;-68
2023/09/03 05:56:27;;;;;;;25.08;16.45;;;;;;;12.93;100.00;102540.38;5075347;28;20036;-68
2023/09/03 05:58:53;;;;;;;25.75;16.50;;;;;;;13.02;100.00;102551.19;5075308;28;20127;-64
2023/09/03 06:01:18;;;;;;;25.60;17.50;;;;;;;13.11;100.00;102557.56;5075137;28;20021;-68
2023/09/03 06:03:43;;;;;;;26.85;19.00;;;;;;;13.14;100.00;102561.16;5075230;28;20071;-65
2023/09/03 06:06:11;;;;;;;27.02;19.73;;;;;;;13.24;100.00;102567.56;5075051;28;20036;-71
2023/09/03 06:08:37;;;;;;;24.00;15.50;;;;;;;13.29;100.00;102576.50;5074857;28;20032;-69
2023/09/03 06:11:04;;;;;;;25.42;16.75;;;;;;;13.34;100.00;102569.59;5075026;28;20020;-72
2023/09/03 06:13:31;;;;;;;26.02;18.00;;;;;;;13.38;100.00;102568.78;5074913;28;20036;-65
2023/09/03 06:15:57;;;;;;;26.40;20.13;;;;;;;13.40;100.00;102569.69;5074805;28;20070;-67
2023/09/03 06:18:23;;;;;;;28.40;21.60;;;;;;;13.44;100.00;102576.00;5073733;28;20162;-68
2023/09/03 06:20:49;;;;;;;29.05;23.17;;;;;;;13.53;100.00;102585.91;5075045;28;20016;-67
2023/09/03 06:23:18;;;;;;;30.30;24.73;;;;;;;13.58;100.00;102579.78;5074675;28;20386;-69
2023/09/03 06:25:45;;;;;;;32.25;26.90;;;;;;;13.64;100.00;102588.75;5074831;28;20034;-72
2023/09/03 06:28:11;;;;;;;30.75;25.40;;;;;;;13.70;100.00;102594.19;5074484;28;20036;-72
2023/09/03 06:30:36;;;;;;;31.33;25.05;;;;;;;13.75;100.00;102595.19;5074881;28;20029;-63
2023/09/03 06:33:02;;;;;;;31.77;25.40;;;;;;;13.82;100.00;102604.13;5075053;28;20487;-66
2023/09/03 06:35:27;;;;;;;31.23;24.83;;;;;;;13.91;100.00;102621.16;5074263;28;20044;-67
2023/09/03 06:37:53;;;;;;;33.95;26.88;;;;;;;13.94;100.00;102615.03;5090398;28;20071;-66
2023/09/03 06:40:18;;;;;;;31.73;25.73;;;;;;;13.93;100.00;102613.22;5074597;28;20112;-66
2023/09/03 06:42:44;;;;;;;31.75;26.50;;;;;;;13.99;100.00;102617.75;5074319;28;20029;-67
2023/09/03 06:45:09;;;;;;;34.47;29.05;;;;;;;14.03;100.00;102628.47;5074520;28;20448;-65
2023/09/03 06:47:35;;;;;;;34.10;29.60;;;;;;;14.07;100.00;102630.31;5074323;28;20043;-67
2023/09/03 06:50:01;;;;;;;33.42;29.33;;;;;;;14.10;100.00;102633.03;5070275;28;20391;-63
2023/09/03 06:52:26;;;;;;;33.38;29.77;;;;;;;14.04;100.00;102640.03;5090057;28;20375;-64
2023/09/03 06:54:51;;;;;;;32.63;28.40;;;;;;;14.12;100.00;102641.03;5074298;28;20428;-65
2023/09/03 06:57:19;;;;;;;33.45;28.80;;;;;;;14.15;100.00;102635.78;5073579;28;20347;-61
2023/09/03 06:59:44;;;;;;;33.85;29.15;;;;;;;14.22;100.00;102642.09;5073777;28;21289;-63
2023/09/03 07:02:09;;;;;;;33.20;28.35;;;;;;;14.25;100.00;102639.50;5089848;28;20123;-61
2023/09/03 07:04:35;;;;;;;33.67;28.88;;;;;;;14.28;100.00;102636.88;5073705;28;20021;-63
2023/09/03 07:07:04;;;;;;;33.08;27.75;;;;;;;14.34;100.00;102652.94;5070198;28;20080;-63
2023/09/03 07:09:31;;;;;;;31.40;26.27;;;;;;;14.40;100.00;102641.53;5067173;28;20033;-66
2023/09/03 07:11:56;;;;;;;31.60;26.27;;;;;;;14.45;100.00;102646.06;5070645;28;20067;-66
2023/09/03 07:14:22;;;;;;;31.92;25.67;;;;;;;14.52;100.00;102647.06;5062326;28;20049;-63
2023/09/03 07:16:47;;;;;;;32.47;25.48;;;;;;;14.58;100.00;102651.59;5073549;28;20115;-64
2023/09/03 07:19:13;;;;;;;30.83;24.17;;;;;;;14.61;100.00;102656.97;5073076;28;20032;-62
2023/09/03 07:21:38;;;;;;;31.55;23.95;;;;;;;14.66;100.00;102655.28;5073462;28;20531;-63
2023/09/03 07:24:04;;;;;;;32.20;23.67;;;;;;;14.73;100.00;102653.63;5073314;28;20467;-63
2023/09/03 07:26:29;;;;;;;30.38;23.65;;;;;;;14.81;100.00;102654.66;5073279;28;20060;-61
2023/09/03 07:28:54;;;;;;;30.80;24.13;;;;;;;14.91;100.00;102655.66;5073157;28;20044;-62
2023/09/03 07:31:20;;;;;;;32.22;25.77;;;;;;;14.99;100.00;102654.91;5072550;28;20043;-66
2023/09/03 07:33:45;;;;;;;32.90;26.25;;;;;;;15.10;100.00;102662.16;5072958;28;20048;-63
2023/09/03 07:36:11;;;;;;;32.13;26.83;;;;;;;15.14;100.00;102666.66;5071835;28;20487;-67
2023/09/03 07:38:38;;;;;;;31.63;26.52;;;;;;;15.23;100.00;102666.81;5073040;28;20040;-64
2023/09/03 07:41:03;;;;;;;33.65;26.33;;;;;;;15.31;100.00;102670.47;5073075;28;20061;-64
2023/09/03 07:43:29;;;;;;;33.67;27.67;;;;;;;15.38;100.00;102673.19;5072715;28;20115;-63
2023/09/03 07:45:54;;;;;;;35.63;29.95;;;;;;;15.48;100.00;102681.34;5073266;28;20027;-64
2023/09/03 07:48:20;;;;;;;33.92;28.35;;;;;;;15.56;100.00;102684.09;5072827;28;20054;-65
2023/09/03 07:50:45;;;;;;;33.15;28.88;;;;;;;15.65;100.00;102691.31;5073328;28;20462;-64
2023/09/03 07:53:11;;;;;;;34.70;29.60;;;;;;;15.81;100.00;102685.34;5073064;28;20029;-67
2023/09/03 07:55:36;;;;;;;33.33;28.15;;;;;;;15.92;100.00;102681.91;5072440;28;20078;-70
2023/09/03 07:58:02;;;;;;;33.13;28.63;;;;;;;16.14;100.00;102680.38;5072767;28;20060;-67
2023/09/03 08:00:27;;;;;;;31.58;26.63;;;;;;;16.33;100.00;102676.09;5072930;28;20040;-72
2023/09/03 08:02:52;;;;;;;33.83;26.92;;;;;;;16.56;100.00;102666.50;5072830;28;20028;-69
2023/09/03 08:05:18;;;;;;;30.80;25.08;;;;;;;16.67;100.00;102665.72;5088497;28;20037;-72
2023/09/03 08:07:43;;;;;;;29.92;24.40;;;;;;;16.88;100.00;102662.34;5072614;28;20033;-73
2023/09/03 08:10:09;;;;;;;28.90;23.42;;;;;;;17.03;100.00;102661.53;5073002;28;20035;-67
2023/09/03 08:12:34;;;;;;;30.42;24.02;;;;;;;17.13;100.00;102652.69;5072830;28;20029;-69
2023/09/03 08:14:59;;;;;;;31.35;24.27;;;;;;;17.26;100.00;102661.69;5072671;28;20024;-71
2023/09/03 08:17:26;;;;;;;29.17;23.40;;;;;;;17.43;100.00;102659.97;5073194;28;20486;-69
2023/09/03 08:19:51;;;;;;;29.20;23.45;;;;;;;17.66;100.00;102667.19;5072744;28;20020;-69
2023/09/03 08:22:17;;;;;;;29.02;23.27;;;;;;;17.84;100.00;102663.69;5072532;28;20032;-72
2023/09/03 08:24:42;;;;;;;30.40;24.30;;;;;;;17.99;100.00;102657.53;5072813;28;20111;-73
2023/09/03 08:27:08;;;;;;;29.08;23.85;;;;;;;18.00;100.00;102655.72;5072536;28;20024;-73
2023/09/03 08:29:33;;;;;;;29.75;24.02;;;;;;;18.10;100.00;102652.16;5072472;28;20429;-64
2023/09/03 08:31:59;;;;;;;28.90;23.77;;;;;;;18.31;100.00;102647.75;5072969;28;20032;-64
2023/09/03 08:34:25;;;;;;;29.20;23.35;;;;;;;18.46;100.00;102648.66;5072254;28;20084;-69
2023/09/03 08:36:50;;;;;;;28.40;23.35;;;;;;;18.54;100.00;102648.66;5072750;28;20024;-65
2023/09/03 08:39:15;;;;;;;28.33;23.10;;;;;;;18.45;100.00;102652.22;5072421;28;20056;-66
2023/09/03 08:41:41;;;;;;;29.15;24.08;;;;;;;18.65;100.00;102653.97;5073470;28;20028;-64
2023/09/03 08:44:13;;;;;;;29.38;23.88;;;;;;;19.17;100.00;102667.31;5076748;28;20047;-66
2023/09/03 08:46:41;;;;;;;28.05;22.83;;;;;;;19.34;100.00;102664.59;5072924;28;20484;-68
2023/09/03 08:49:08;;;;;;;29.23;23.15;;;;;;;19.64;100.00;102654.66;5072613;28;20039;-65
2023/09/03 08:51:35;;;;;;;27.23;21.10;;;;;;;20.35;100.00;102654.19;5076274;28;20060;-64
2023/09/03 08:54:01;;;;;;;27.92;21.73;;;;;;;21.44;100.00;102658.53;5076449;28;20074;-67
2023/09/03 08:56:26;;;;;;;26.33;19.48;;;;;;;22.20;100.00;102661.94;5076283;28;20028;-66
2023/09/03 08:58:53;;;;;;;26.90;19.90;;;;;;;22.55;100.00;102660.50;5076396;28;20047;-66
2023/09/03 09:01:20;;;;;;;25.40;18.10;;;;;;;22.97;100.00;102665.16;5076733;28;20102;-66
2023/09/03 09:03:49;;;;;;;25.92;18.63;;;;;;;23.49;100.00;102658.72;5076081;28;20028;-70
2023/09/03 09:06:16;;;;;;;24.27;17.30;;;;;;;23.99;100.00;102663.06;5091704;28;20025;-69
2023/09/03 09:08:42;;;;;;;25.05;16.85;;;;;;;24.07;100.00;102652.97;5076108;28;20020;-68
2023/09/03 09:11:18;;;;;;;23.42;16.80;;;;;;;24.25;100.00;102658.84;5076036;28;20031;-67
2023/09/03 09:13:53;;;;;;;24.75;15.82;;;;;;;24.38;100.00;102660.31;5072798;28;20039;-68
2023/09/03 09:16:19;;;;;;;22.70;14.27;;;;;;;24.68;100.00;102655.97;5076061;28;20020;-72
2023/09/03 09:18:44;;;;;;;23.48;15.30;;;;;;;24.63;100.00;102663.31;5076142;28;20490;-73
2023/09/03 09:21:11;;;;;;;22.58;14.40;;;;;;;24.74;100.00;102659.41;5075887;28;20033;-72
2023/09/03 09:23:36;;;;;;;23.48;14.00;;;;;;;24.84;100.00;102663.66;5076230;28;20111;-72
2023/09/03 09:26:14;;;;;;;23.42;13.65;;;;;;;24.86;100.00;102661.81;5075996;28;20029;-71
2023/09/03 09:28:56;;;;;;;22.20;13.18;;;;;;;24.80;100.00;102661.94;5071891;28;20036;-69
2023/09/03 09:31:26;;;;;;;21.92;13.15;;;;;;;24.47;100.00;102653.78;5073474;28;20050;-71
2023/09/03 09:33:52;;;;;;;21.95;13.30;;;;;;;24.23;100.00;102652.59;5074623;28;20031;-71
2023/09/03 09:36:17;;;;;;;21.90;12.98;;;;;;;24.03;100.00;102653.97;5075378;28;20045;-69
2023/09/03 09:38:43;;;;;;;22.55;12.80;;;;;;;24.03;100.00;102656.66;5075411;28;20037;-69
2023/09/03 09:41:25;;;;;;;22.00;13.05;;;;;;;24.11;100.00;102651.06;5075108;28;20112;-70
2023/09/03 09:43:51;;;;;;;21.23;12.10;;;;;;;24.36;100.00;102649.53;5073319;28;20024;-73
2023/09/03 09:46:30;;;;;;;22.23;13.13;;;;;;;24.70;100.00;102650.53;5075624;28;20456;-71
2023/09/03 09:49:00;;;;;;;22.60;13.38;;;;;;;24.93;100.00;102646.28;5075286;28;20094;-72
2023/09/03 09:51:27;;;;;;;21.67;12.50;;;;;;;25.09;100.00;102638.63;5075307;28;20048;-71
2023/09/03 09:53:55;;;;;;;21.98;12.48;;;;;;;24.96;100.00;102638.06;5090830;28;20105;-69
2023/09/03 09:56:20;;;;;;;23.45;13.20;;;;;;;25.04;100.00;102634.22;5075414;28;20422;-68
2023/09/03 09:58:46;;;;;;;22.90;13.20;;;;;;;25.23;100.00;102634.56;5074950;28;20040;-72
2023/09/03 10:01:11;;;;;;;21.85;12.55;;;;;;;25.50;100.00;102637.44;5075279;28;20046;-68
2023/09/03 10:03:41;;;;;;;22.65;12.90;;;;;;;25.57;100.00;102639.03;5075134;28;20028;-71
2023/09/03 10:06:07;;;;;;;22.00;12.20;;;;;;;26.12;100.00;102635.50;5071439;28;20036;-66
2023/09/03 10:08:34;;;;;;;22.15;12.68;;;;;;;26.39;100.00;102639.13;5074832;28;20025;-67
2023/09/03 10:11:00;;;;;;;21.10;11.80;;;;;;;26.62;100.00;102643.75;5075043;28;20075;-67
2023/09/03 10:13:25;;;;;;;20.15;10.48;;;;;;;27.11;100.00;102640.22;5075189;28;20060;-64
2023/09/03 10:15:52;;;;;;;20.55;9.55;;;;;;;27.83;100.00;102642.88;5075119;28;20059;-70
2023/09/03 10:18:18;;;;;;;20.83;10.27;;;;;;;28.16;100.00;102633.44;5074826;28;20036;-64
2023/09/03 10:20:45;;;;;;;21.42;10.32;;;;;;;28.52;100.00;102641.84;5074829;28;20032;-66
2023/09/03 10:23:11;;;;;;;19.58;9.88;;;;;;;28.83;100.00;102640.53;5075043;28;20032;-63
2023/09/03 10:25:37;;;;;;;20.35;9.88;;;;;;;29.07;95.96;102643.09;5074730;28;20112;-65
2023/09/03 10:28:05;;;;;;;20.48;10.07;;;;;;;29.39;92.61;102643.47;5074456;28;20036;-63
2023/09/03 10:30:39;;;;;;;20.17;10.10;;;;;;;29.86;87.15;102643.03;5075010;28;20067;-66
2023/09/03 10:33:08;;;;;;;20.33;9.63;;;;;;;30.14;81.90;102641.63;5074834;28;20024;-66
2023/09/03 10:35:34;;;;;;;19.67;8.65;;;;;;;30.59;72.81;102645.72;5074274;28;20033;-66
2023/09/03 10:37:59;;;;;;;19.10;9.63;;;;;;;31.06;69.35;102652.38;5074459;28;20039;-67
2023/09/03 10:40:28;;;;;;;19.48;8.73;;;;;;;31.37;66.07;102653.41;5074512;28;20066;-69
2023/09/03 10:43:22;;;;;;;18.95;8.43;;;;;;;32.37;71.69;102644.03;5074375;28;20029;-68
2023/09/03 10:46:05;;;;;;;18.35;8.02;;;;;;;32.24;59.97;102640.28;5071821;28;20052;-65
2023/09/03 10:48:31;;;;;;;18.23;7.15;;;;;;;31.71;57.52;102648.78;5074015;28;20028;-66
2023/09/03 10:50:56;;;;;;;17.80;7.00;;;;;;;31.84;58.61;102654.44;5074201;28;20119;-65
2023/09/03 10:53:41;;;;;;;17.13;6.90;;;;;;;31.98;63.25;102651.78;5074281;28;20040;-67
2023/09/03 10:56:14;;;;;;;18.98;7.10;;;;;;;31.42;57.67;102647.69;5070643;28;20020;-69
2023/09/03 10:58:56;;;;;;;18.15;7.18;;;;;;;31.07;58.33;102653.25;5070930;28;20395;-66
2023/09/03 11:01:26;;;;;;;14.82;5.50;;;;;;;31.59;54.88;102650.38;5074283;28;20032;-69